createdAt,value
2022-11-19T00:01:28.593Z,1.10
2022-11-19T00:03:56.355Z,1.10
2022-11-19T00:06:27.092Z,1.10
2022-11-19T00:08:55.180Z,1.10
2022-11-19T00:11:44.162Z,1.10
2022-11-19T00:14:14.724Z,1.10
2022-11-19T00:16:43.779Z,1.10
2022-11-19T00:19:11.790Z,1.10
2022-11-19T00:21:39.163Z,1.10
2022-11-19T00:24:07.071Z,1.10
2022-11-19T00:26:34.595Z,1.10
2022-11-19T00:29:01.762Z,1.10
2022-11-19T00:31:28.980Z,1.10
2022-11-19T00:33:56.020Z,1.10
2022-11-19T00:36:23.632Z,1.10
2022-11-19T00:38:51.196Z,1.10
2022-11-19T00:41:18.478Z,1.10
2022-11-19T00:43:48.618Z,1.10
2022-11-19T00:46:21.405Z,1.00
2022-11-19T00:48:51.055Z,1.00
2022-11-19T00:51:21.368Z,1.00
2022-11-19T00:53:48.602Z,1.00
2022-11-19T00:56:20.244Z,1.00
2022-11-19T00:58:48.650Z,1.00
2022-11-19T01:01:19.366Z,1.00
2022-11-19T01:03:46.706Z,1.00
2022-11-19T01:06:19.393Z,1.00
2022-11-19T01:08:52.617Z,1.00
2022-11-19T01:11:27.745Z,1.00
2022-11-19T01:13:55.288Z,1.00
2022-11-19T01:16:32.366Z,0.90
2022-11-19T01:19:00.545Z,0.90
2022-11-19T01:21:32.774Z,0.90
2022-11-19T01:24:00.730Z,0.90
2022-11-19T01:26:28.795Z,0.90
2022-11-19T01:28:56.735Z,0.80
2022-11-19T01:31:29.657Z,0.80
2022-11-19T01:33:57.096Z,0.80
2022-11-19T01:36:28.176Z,0.70
2022-11-19T01:38:56.536Z,0.70
2022-11-19T01:41:31.556Z,0.60
2022-11-19T01:44:05.966Z,0.50
2022-11-19T01:46:36.743Z,0.50
2022-11-19T01:49:15.228Z,0.40
2022-11-19T01:51:59.020Z,0.40
2022-11-19T01:54:30.090Z,0.30
2022-11-19T01:57:03.509Z,0.30
2022-11-19T01:59:32.158Z,0.30
2022-11-19T02:01:59.790Z,0.30
2022-11-19T02:04:27.908Z,0.20
2022-11-19T02:06:56.058Z,0.20
2022-11-19T02:09:24.800Z,0.20
2022-11-19T02:12:19.231Z,0.20
2022-11-19T02:15:06.426Z,0.20
2022-11-19T02:18:10.650Z,0.10
2022-11-19T02:21:26.819Z,0.10
2022-11-19T02:24:21.704Z,0.00
2022-11-19T02:27:06.829Z,0.00
2022-11-19T02:30:17.491Z,0.00
2022-11-19T02:33:13.807Z,-0.10
2022-11-19T02:35:51.611Z,-0.10
2022-11-19T02:38:29.485Z,-0.10
2022-11-19T02:41:35.916Z,-0.20
2022-11-19T02:44:43.865Z,-0.20
2022-11-19T02:47:20.593Z,-0.20
2022-11-19T02:49:49.743Z,-0.30
2022-11-19T02:52:17.867Z,-0.30
2022-11-19T02:54:45.984Z,-0.30
2022-11-19T02:57:14.287Z,-0.30
2022-11-19T03:00:15.762Z,-0.30
2022-11-19T03:03:33.043Z,-0.40
2022-11-19T03:06:07.733Z,-0.40
2022-11-19T03:08:35.179Z,-0.40
2022-11-19T03:11:20.534Z,-0.40
2022-11-19T03:14:59.952Z,-0.40
2022-11-19T03:17:54.325Z,-0.40
2022-11-19T03:20:31.443Z,-0.40
2022-11-19T03:23:20.378Z,-0.50
2022-11-19T03:25:54.566Z,-0.50
2022-11-19T03:28:29.323Z,-0.50
2022-11-19T03:30:59.288Z,-0.60
2022-11-19T03:33:36.506Z,-0.60
2022-11-19T03:36:20.235Z,-0.60
2022-11-19T03:38:55.241Z,-0.70
2022-11-19T03:41:24.658Z,-0.70
2022-11-19T03:44:00.790Z,-0.80
2022-11-19T03:46:31.362Z,-0.80
2022-11-19T03:49:00.166Z,-0.80
2022-11-19T03:51:44.007Z,-0.80
2022-11-19T03:54:11.369Z,-0.80
2022-11-19T03:56:41.168Z,-0.90
2022-11-19T03:59:11.379Z,-0.90
2022-11-19T04:01:39.605Z,-0.90
2022-11-19T04:04:25.565Z,-0.90
2022-11-19T04:06:52.655Z,-0.90
2022-11-19T04:09:19.986Z,-1.00
2022-11-19T04:14:13.306Z,-1.00
2022-11-19T04:16:40.347Z,-1.00
2022-11-19T04:19:07.402Z,-1.00
2022-11-19T04:21:34.415Z,-1.10
2022-11-19T04:24:01.462Z,-1.10
2022-11-19T04:26:28.691Z,-1.10
2022-11-19T04:28:55.859Z,-1.10
2022-11-19T04:31:23.043Z,-1.10
2022-11-19T04:33:50.230Z,-1.10
2022-11-19T04:36:17.333Z,-1.10
2022-11-19T04:38:44.491Z,-1.20
2022-11-19T04:41:11.612Z,-1.20
2022-11-19T04:43:40.213Z,-1.20
2022-11-19T04:46:07.585Z,-1.20
2022-11-19T04:48:35.026Z,-1.20
2022-11-19T04:51:02.205Z,-1.30
2022-11-19T04:53:29.294Z,-1.30
2022-11-19T04:55:56.403Z,-1.30
2022-11-19T04:58:24.044Z,-1.40
2022-11-19T05:00:51.262Z,-1.40
2022-11-19T05:03:18.320Z,-1.40
2022-11-19T05:05:45.494Z,-1.40
2022-11-19T05:08:12.682Z,-1.40
2022-11-19T05:10:39.892Z,-1.40
2022-11-19T05:13:07.054Z,-1.40
2022-11-19T05:15:34.342Z,-1.50
2022-11-19T05:18:01.527Z,-1.50
2022-11-19T05:20:28.794Z,-1.50
2022-11-19T05:22:56.057Z,-1.50
2022-11-19T05:25:23.253Z,-1.60
2022-11-19T05:27:50.419Z,-1.60
2022-11-19T05:30:17.668Z,-1.60
2022-11-19T05:32:45.070Z,-1.60
2022-11-19T05:35:12.259Z,-1.60
2022-11-19T05:37:39.572Z,-1.70
2022-11-19T05:40:07.963Z,-1.70
2022-11-19T05:42:35.269Z,-1.70
2022-11-19T05:45:02.415Z,-1.70
2022-11-19T05:47:29.727Z,-1.70
2022-11-19T05:49:56.818Z,-1.70
2022-11-19T05:52:23.790Z,-1.80
2022-11-19T05:54:50.850Z,-1.80
2022-11-19T05:57:17.864Z,-1.80
2022-11-19T05:59:45.093Z,-1.80
2022-11-19T06:02:12.789Z,-1.80
2022-11-19T06:04:39.900Z,-1.80
2022-11-19T06:07:07.108Z,-1.80
2022-11-19T06:09:34.312Z,-1.90
2022-11-19T06:12:01.531Z,-1.80
2022-11-19T06:14:28.766Z,-1.90
2022-11-19T06:16:58.528Z,-1.80
2022-11-19T06:19:26.490Z,-1.90
2022-11-19T06:21:54.167Z,-1.90
2022-11-19T06:24:21.295Z,-1.90
2022-11-19T06:26:48.310Z,-1.80
2022-11-19T06:29:17.698Z,-1.90
2022-11-19T06:31:45.886Z,-1.90
2022-11-19T06:34:12.993Z,-1.90
2022-11-19T06:36:44.943Z,-1.90
2022-11-19T06:39:14.938Z,-1.90
2022-11-19T06:41:42.251Z,-1.90
2022-11-19T06:44:09.460Z,-2.00
2022-11-19T06:46:36.668Z,-2.00
2022-11-19T06:49:05.834Z,-2.00
2022-11-19T06:51:33.446Z,-2.00
2022-11-19T06:54:00.568Z,-2.00
2022-11-19T06:56:27.842Z,-2.00
2022-11-19T06:58:58.598Z,-2.10
2022-11-19T07:01:25.916Z,-2.00
2022-11-19T07:03:53.359Z,-2.10
2022-11-19T07:06:20.425Z,-2.10
2022-11-19T07:08:47.436Z,-2.10
2022-11-19T07:11:26.569Z,-2.10
2022-11-19T07:13:57.721Z,-2.10
2022-11-19T07:16:31.857Z,-2.10
2022-11-19T07:19:01.112Z,-2.10
2022-11-19T07:21:29.573Z,-2.10
2022-11-19T07:23:58.536Z,-2.10
2022-11-19T07:26:26.393Z,-2.10
2022-11-19T07:28:53.712Z,-2.00
2022-11-19T07:31:21.013Z,-2.00
2022-11-19T07:33:48.412Z,-2.00
2022-11-19T07:36:18.547Z,-2.00
2022-11-19T07:38:47.137Z,-2.00
2022-11-19T07:41:32.752Z,-2.00
2022-11-19T07:43:59.889Z,-2.00
2022-11-19T07:46:28.020Z,-2.00
2022-11-19T07:48:57.208Z,-1.90
2022-11-19T07:51:27.543Z,-1.90
2022-11-19T07:53:57.744Z,-1.90
2022-11-19T07:56:27.501Z,-1.90
2022-11-19T07:58:54.578Z,-1.90
2022-11-19T08:01:24.598Z,-1.90
2022-11-19T08:03:56.286Z,-1.80
2022-11-19T08:06:26.839Z,-1.80
2022-11-19T08:08:56.229Z,-1.80
2022-11-19T08:11:24.452Z,-1.80
2022-11-19T08:13:52.468Z,-1.70
2022-11-19T08:16:38.611Z,-1.70
2022-11-19T08:19:14.112Z,-1.70
2022-11-19T08:21:47.027Z,-1.60
2022-11-19T08:24:18.743Z,-1.60
2022-11-19T08:27:11.617Z,-1.60
2022-11-19T08:29:39.004Z,-1.50
2022-11-19T08:32:06.478Z,-1.50
2022-11-19T08:34:34.329Z,-1.50
2022-11-19T08:37:01.631Z,-1.50
2022-11-19T08:39:29.480Z,-1.40
2022-11-19T08:42:15.459Z,-1.40
2022-11-19T08:44:42.896Z,-1.40
2022-11-19T08:47:10.088Z,-1.30
2022-11-19T08:49:37.245Z,-1.30
2022-11-19T08:52:04.531Z,-1.20
2022-11-19T08:54:32.466Z,-1.20
2022-11-19T08:56:59.778Z,-1.10
2022-11-19T08:59:27.895Z,-1.10
2022-11-19T09:01:55.052Z,-1.10
2022-11-19T09:04:22.700Z,-1.00
2022-11-19T09:06:50.057Z,-1.00
2022-11-19T09:09:17.870Z,-0.90
2022-11-19T09:11:45.039Z,-0.90
2022-11-19T09:14:12.221Z,-0.80
2022-11-19T09:16:39.731Z,-0.70
2022-11-19T09:19:07.079Z,-0.70
2022-11-19T09:21:34.210Z,-0.60
2022-11-19T09:24:06.182Z,-0.60
2022-11-19T09:26:35.391Z,-0.40
2022-11-19T09:29:02.900Z,-0.30
2022-11-19T09:31:30.024Z,-0.30
2022-11-19T09:33:57.157Z,-0.20
2022-11-19T09:36:24.303Z,-0.20
2022-11-19T09:38:56.565Z,-0.10
2022-11-19T09:42:11.867Z,-0.10
2022-11-19T09:45:06.322Z,0.00
2022-11-19T09:47:44.007Z,0.10
2022-11-19T09:50:23.110Z,0.20
2022-11-19T09:53:11.632Z,0.30
2022-11-19T09:55:45.116Z,0.40
2022-11-19T09:58:23.383Z,0.50
2022-11-19T10:00:50.940Z,0.60
2022-11-19T10:03:22.794Z,0.70
2022-11-19T10:06:25.984Z,0.80
2022-11-19T10:09:39.750Z,0.90
2022-11-19T10:12:36.198Z,0.90
2022-11-19T10:15:37.378Z,1.10
2022-11-19T10:18:08.894Z,1.20
2022-11-19T10:20:57.474Z,1.30
2022-11-19T10:23:34.282Z,1.40
2022-11-19T10:26:08.890Z,1.40
2022-11-19T10:28:39.807Z,1.50
2022-11-19T10:31:35.741Z,1.60
2022-11-19T10:34:31.342Z,1.70
2022-11-19T10:37:15.514Z,1.80
2022-11-19T10:40:14.904Z,1.80
2022-11-19T10:42:49.117Z,1.90
2022-11-19T10:45:20.535Z,2.00
2022-11-19T10:48:04.577Z,2.10
2022-11-19T10:50:35.272Z,2.20
2022-11-19T10:53:36.211Z,2.30
2022-11-19T10:56:26.243Z,2.30
2022-11-19T10:59:13.707Z,2.30
2022-11-19T11:01:44.776Z,2.40
2022-11-19T11:04:22.664Z,2.40
2022-11-19T11:06:55.896Z,2.50
2022-11-19T11:09:36.159Z,2.60
2022-11-19T11:12:44.695Z,2.60
2022-11-19T11:15:26.815Z,2.60
2022-11-19T11:18:05.045Z,2.60
2022-11-19T11:20:32.785Z,2.70
2022-11-19T11:23:15.098Z,2.70
2022-11-19T11:26:11.554Z,2.80
2022-11-19T11:29:08.790Z,2.80
2022-11-19T11:31:47.613Z,2.80
2022-11-19T11:34:43.210Z,2.90
2022-11-19T11:37:11.940Z,2.90
2022-11-19T11:39:44.324Z,2.90
2022-11-19T11:42:18.141Z,3.00
2022-11-19T11:44:56.343Z,3.00
2022-11-19T11:47:31.290Z,3.00
2022-11-19T11:50:17.138Z,3.10
2022-11-19T11:52:51.962Z,3.10
2022-11-19T11:55:27.335Z,3.20
2022-11-19T11:57:57.848Z,3.10
2022-11-19T12:00:44.620Z,3.20
2022-11-19T12:03:18.927Z,3.40
2022-11-19T12:06:17.323Z,3.50
2022-11-19T12:08:56.347Z,3.50
2022-11-19T12:11:54.374Z,3.50
2022-11-19T12:14:34.743Z,3.50
2022-11-19T12:17:18.913Z,3.40
2022-11-19T12:20:13.334Z,3.60
2022-11-19T12:23:17.048Z,3.60
2022-11-19T12:26:13.922Z,3.60
2022-11-19T12:28:49.834Z,3.60
2022-11-19T12:31:41.097Z,3.70
2022-11-19T12:34:32.088Z,3.60
2022-11-19T12:37:39.496Z,3.60
2022-11-19T12:40:33.972Z,3.60
2022-11-19T12:43:29.093Z,3.60
2022-11-19T12:46:07.732Z,3.60
2022-11-19T12:48:47.562Z,3.60
2022-11-19T12:51:52.280Z,3.70
2022-11-19T12:54:41.482Z,3.70
2022-11-19T12:57:49.065Z,3.70
2022-11-19T13:00:23.486Z,3.70
2022-11-19T13:03:15.019Z,3.80
2022-11-19T13:05:56.708Z,3.80
2022-11-19T13:08:38.910Z,3.80
2022-11-19T13:11:19.552Z,3.80
2022-11-19T13:14:01.083Z,3.70
2022-11-19T13:16:30.810Z,3.70
2022-11-19T13:19:18.703Z,3.70
2022-11-19T13:21:58.774Z,3.70
2022-11-19T13:24:39.587Z,3.70
2022-11-19T13:27:16.510Z,3.80
2022-11-19T13:30:02.768Z,3.70
2022-11-19T13:32:43.960Z,3.70
2022-11-19T13:35:20.860Z,3.70
2022-11-19T13:38:14.658Z,3.70
2022-11-19T13:41:04.618Z,3.70
2022-11-19T13:43:50.314Z,3.70
2022-11-19T13:46:32.703Z,3.60
2022-11-19T13:49:27.315Z,3.60
2022-11-19T13:52:02.003Z,3.70
2022-11-19T13:54:37.636Z,3.70
2022-11-19T13:57:07.613Z,3.60
2022-11-19T13:59:46.627Z,3.70
2022-11-19T14:02:50.463Z,3.60
2022-11-19T14:05:46.941Z,3.50
2022-11-19T14:08:44.088Z,3.40
2022-11-19T14:12:03.832Z,3.40
2022-11-19T14:15:23.558Z,3.30
2022-11-19T14:18:43.169Z,3.30
2022-11-19T14:21:47.332Z,3.20
2022-11-19T14:24:48.160Z,3.10
2022-11-19T14:27:31.351Z,3.00
2022-11-19T14:30:19.123Z,2.90
2022-11-19T14:32:50.421Z,2.80
2022-11-19T14:35:32.745Z,2.70
2022-11-19T14:38:20.256Z,2.70
2022-11-19T14:41:03.270Z,2.60
2022-11-19T14:43:48.719Z,2.60
2022-11-19T14:46:15.768Z,2.50
2022-11-19T14:48:42.760Z,2.40
2022-11-19T14:51:13.308Z,2.40
2022-11-19T14:54:04.054Z,2.30
2022-11-19T14:56:34.076Z,2.30
2022-11-19T14:59:06.922Z,2.20
2022-11-19T15:01:35.205Z,2.20
2022-11-19T15:04:10.118Z,2.10
2022-11-19T15:06:38.258Z,2.10
2022-11-19T15:09:06.119Z,2.00
2022-11-19T15:12:00.261Z,1.90
2022-11-19T15:14:38.513Z,1.90
2022-11-19T15:17:08.001Z,1.80
2022-11-19T15:20:30.552Z,1.80
2022-11-19T15:23:21.871Z,1.70
2022-11-19T15:26:07.506Z,1.60
2022-11-19T15:29:09.451Z,1.50
2022-11-19T15:32:10.535Z,1.50
2022-11-19T15:35:33.447Z,1.40
2022-11-19T15:38:22.607Z,1.30
2022-11-19T15:40:57.008Z,1.30
2022-11-19T15:43:49.118Z,1.20
2022-11-19T15:46:30.807Z,1.20
2022-11-19T15:49:19.133Z,1.10
2022-11-19T15:52:16.140Z,1.00
2022-11-19T15:54:44.952Z,0.90
2022-11-19T15:57:27.971Z,0.80
2022-11-19T16:00:00.837Z,0.80
2022-11-19T16:02:39.139Z,0.80
2022-11-19T16:05:07.549Z,0.70
2022-11-19T16:07:35.090Z,0.60
2022-11-19T16:10:30.005Z,0.60
2022-11-19T16:13:38.853Z,0.50
2022-11-19T16:16:47.646Z,0.50
2022-11-19T16:19:16.855Z,0.40
2022-11-19T16:21:49.294Z,0.30
2022-11-19T16:24:38.375Z,0.30
2022-11-19T16:27:12.822Z,0.10
2022-11-19T16:29:42.699Z,0.00
2022-11-19T16:32:17.022Z,-0.10
2022-11-19T16:34:44.788Z,-0.20
2022-11-19T16:37:17.853Z,-0.20
2022-11-19T16:39:51.443Z,-0.30
2022-11-19T16:42:26.659Z,-0.40
2022-11-19T16:44:57.493Z,-0.40
2022-11-19T16:47:51.418Z,-0.50
2022-11-19T16:50:33.805Z,-0.50
2022-11-19T16:53:03.068Z,-0.60
2022-11-19T16:55:35.713Z,-0.60
2022-11-19T16:58:25.396Z,-0.60
2022-11-19T17:00:55.793Z,-0.60
2022-11-19T17:03:23.736Z,-0.60
2022-11-19T17:05:52.784Z,-0.60
2022-11-19T17:08:36.789Z,-0.60
2022-11-19T17:11:38.995Z,-0.60
2022-11-19T17:14:31.053Z,-0.60
2022-11-19T17:16:58.310Z,-0.70
2022-11-19T17:19:36.316Z,-0.80
2022-11-19T17:22:17.664Z,-0.80
2022-11-19T17:24:46.381Z,-0.90
2022-11-19T17:27:35.639Z,-0.90
2022-11-19T17:30:27.346Z,-1.00
2022-11-19T17:32:58.170Z,-1.00
2022-11-19T17:35:38.195Z,-1.00
2022-11-19T17:38:13.374Z,-1.10
2022-11-19T17:40:54.149Z,-1.10
2022-11-19T17:43:51.803Z,-1.10
2022-11-19T17:46:20.046Z,-1.20
2022-11-19T17:48:49.085Z,-1.30
2022-11-19T17:51:25.002Z,-1.30
2022-11-19T17:53:56.567Z,-1.30
2022-11-19T17:56:30.449Z,-1.30
2022-11-19T17:58:59.613Z,-1.30
2022-11-19T18:01:27.669Z,-1.30
2022-11-19T18:03:55.053Z,-1.30
2022-11-19T18:06:22.294Z,-1.40
2022-11-19T18:08:49.424Z,-1.40
2022-11-19T18:11:21.615Z,-1.40
2022-11-19T18:13:52.712Z,-1.50
2022-11-19T18:16:26.511Z,-1.60
2022-11-19T18:18:54.137Z,-1.60
2022-11-19T18:21:23.026Z,-1.60
2022-11-19T18:23:51.904Z,-1.60
2022-11-19T18:26:24.991Z,-1.60
2022-11-19T18:28:58.765Z,-1.60
2022-11-19T18:31:27.874Z,-1.70
2022-11-19T18:33:56.265Z,-1.70
2022-11-19T18:36:26.531Z,-1.70
2022-11-19T18:38:55.551Z,-1.80
2022-11-19T18:41:22.839Z,-1.80
2022-11-19T18:44:08.877Z,-1.90
2022-11-19T18:46:36.083Z,-1.90
2022-11-19T18:49:03.208Z,-1.90
2022-11-19T18:51:32.226Z,-1.90
2022-11-19T18:53:59.702Z,-1.90
2022-11-19T18:56:27.091Z,-1.90
2022-11-19T18:58:54.388Z,-1.90
2022-11-19T19:01:23.909Z,-1.90
2022-11-19T19:03:52.433Z,-2.00
2022-11-19T19:06:19.745Z,-2.00
2022-11-19T19:08:46.914Z,-2.00
2022-11-19T19:11:32.757Z,-2.00
2022-11-19T19:14:00.225Z,-2.00
2022-11-19T19:16:28.294Z,-2.10
2022-11-19T19:18:56.011Z,-2.10
2022-11-19T19:21:23.581Z,-2.10
2022-11-19T19:23:50.843Z,-2.10
2022-11-19T19:26:19.103Z,-2.10
2022-11-19T19:28:52.296Z,-2.10
2022-11-19T19:31:21.265Z,-2.10
2022-11-19T19:33:49.136Z,-2.20
2022-11-19T19:36:17.770Z,-2.30
2022-11-19T19:38:45.719Z,-2.30
2022-11-19T19:41:25.806Z,-2.30
2022-11-19T19:43:54.788Z,-2.30
2022-11-19T19:46:23.685Z,-2.40
2022-11-19T19:48:55.897Z,-2.40
2022-11-19T19:51:26.593Z,-2.40
2022-11-19T19:53:54.989Z,-2.30
2022-11-19T19:56:30.250Z,-2.40
2022-11-19T19:58:59.062Z,-2.50
2022-11-19T20:01:29.741Z,-2.50
2022-11-19T20:04:11.508Z,-2.50
2022-11-19T20:06:44.932Z,-2.50
2022-11-19T20:09:12.429Z,-2.50
2022-11-19T20:11:39.794Z,-2.50
2022-11-19T20:14:07.487Z,-2.50
2022-11-19T20:16:38.826Z,-2.50
2022-11-19T20:19:07.415Z,-2.50
2022-11-19T20:21:36.409Z,-2.50
2022-11-19T20:24:10.393Z,-2.40
2022-11-19T20:26:40.258Z,-2.50
2022-11-19T20:29:11.368Z,-2.60
2022-11-19T20:31:38.819Z,-2.60
2022-11-19T20:34:06.693Z,-2.60
2022-11-19T20:36:35.499Z,-2.60
2022-11-19T20:39:04.927Z,-2.70
2022-11-19T20:41:54.618Z,-2.70
2022-11-19T20:44:23.470Z,-2.70
2022-11-19T20:47:02.251Z,-2.70
2022-11-19T20:49:40.439Z,-2.70
2022-11-19T20:52:08.317Z,-2.70
2022-11-19T20:54:35.727Z,-2.80
2022-11-19T20:57:03.257Z,-2.80
2022-11-19T20:59:30.975Z,-2.80
2022-11-19T21:01:58.471Z,-2.70
2022-11-19T21:04:28.556Z,-2.80
2022-11-19T21:06:55.870Z,-2.80
2022-11-19T21:09:23.345Z,-2.80
2022-11-19T21:11:51.156Z,-2.80
2022-11-19T21:14:18.310Z,-2.80
2022-11-19T21:16:45.441Z,-2.80
2022-11-19T21:19:13.420Z,-2.80
2022-11-19T21:21:40.701Z,-2.80
2022-11-19T21:24:08.406Z,-2.80
2022-11-19T21:26:35.622Z,-2.80
2022-11-19T21:29:03.136Z,-2.80
2022-11-19T21:31:43.895Z,-2.80
2022-11-19T21:34:23.178Z,-2.90
2022-11-19T21:36:50.982Z,-2.90
2022-11-19T21:39:19.765Z,-2.90
2022-11-19T21:41:47.602Z,-2.90
2022-11-19T21:44:20.826Z,-3.00
2022-11-19T21:46:48.928Z,-3.00
2022-11-19T21:49:16.095Z,-3.10
2022-11-19T21:51:43.535Z,-3.10
2022-11-19T21:54:10.683Z,-3.10
2022-11-19T21:56:39.032Z,-3.10
2022-11-19T21:59:07.233Z,-3.10
2022-11-19T22:01:34.599Z,-3.10
2022-11-19T22:04:02.060Z,-3.20
2022-11-19T22:06:31.666Z,-3.20
2022-11-19T22:08:58.891Z,-3.10
2022-11-19T22:11:41.051Z,-3.10
2022-11-19T22:14:09.647Z,-3.10
2022-11-19T22:16:39.896Z,-3.10
2022-11-19T22:19:07.495Z,-3.10
2022-11-19T22:21:35.469Z,-3.10
2022-11-19T22:24:02.917Z,-3.10
2022-11-19T22:26:30.900Z,-3.10
2022-11-19T22:28:58.310Z,-3.20
2022-11-19T22:31:29.433Z,-3.20
2022-11-19T22:33:56.559Z,-3.30
2022-11-19T22:36:23.769Z,-3.30
2022-11-19T22:38:51.946Z,-3.30
2022-11-19T22:41:21.621Z,-3.30
2022-11-19T22:43:49.357Z,-3.30
2022-11-19T22:46:17.737Z,-3.30
2022-11-19T22:48:44.868Z,-3.30
2022-11-19T22:51:19.088Z,-3.40
2022-11-19T22:53:46.651Z,-3.40
2022-11-19T22:56:19.185Z,-3.40
2022-11-19T22:58:46.662Z,-3.40
2022-11-19T23:01:22.862Z,-3.40
2022-11-19T23:03:50.640Z,-3.40
2022-11-19T23:06:18.200Z,-3.40
2022-11-19T23:08:46.297Z,-3.40
2022-11-19T23:11:16.785Z,-3.40
2022-11-19T23:13:45.038Z,-3.40
2022-11-19T23:16:16.346Z,-3.40
2022-11-19T23:18:53.150Z,-3.40
2022-11-19T23:21:26.458Z,-3.40
2022-11-19T23:23:55.153Z,-3.50
2022-11-19T23:26:25.569Z,-3.40
2022-11-19T23:28:53.675Z,-3.40
2022-11-19T23:31:33.656Z,-3.40
2022-11-19T23:34:00.737Z,-3.30
2022-11-19T23:36:31.577Z,-3.30
2022-11-19T23:38:59.950Z,-3.20
2022-11-19T23:41:32.759Z,-3.10
2022-11-19T23:44:00.141Z,-3.00
2022-11-19T23:46:33.497Z,-2.80
2022-11-19T23:49:01.843Z,-2.70
2022-11-19T23:51:33.767Z,-2.60
2022-11-19T23:54:01.366Z,-2.60
2022-11-19T23:56:31.988Z,-2.50
2022-11-19T23:59:01.721Z,-2.50
